sensor_id;sensor_type;location;lat;lon;timestamp;P1;durP1;ratioP1;P2;durP2;ratioP2
32196;SDS011;18697;42.770;23.400;2023-07-22T00:01:53;7.75;;;4.00;;
32196;SDS011;18697;42.770;23.400;2023-07-22T00:04:19;7.97;;;3.50;;
32196;SDS011;18697;42.770;23.400;2023-07-22T00:06:44;5.20;;;3.47;;
32196;SDS011;18697;42.770;23.400;2023-07-22T00:09:09;7.55;;;4.40;;
32196;SDS011;18697;42.770;23.400;2023-07-22T00:11:35;7.80;;;4.28;;
32196;SDS011;18697;42.770;23.400;2023-07-22T00:14:00;6.82;;;3.70;;
32196;SDS011;18697;42.770;23.400;2023-07-22T00:16:26;8.30;;;4.25;;
32196;SDS011;18697;42.770;23.400;2023-07-22T00:18:53;11.63;;;4.50;;
32196;SDS011;18697;42.770;23.400;2023-07-22T00:21:19;9.27;;;4.03;;
32196;SDS011;18697;42.770;23.400;2023-07-22T00:23:44;6.95;;;3.95;;
32196;SDS011;18697;42.770;23.400;2023-07-22T00:26:11;7.97;;;4.55;;
32196;SDS011;18697;42.770;23.400;2023-07-22T00:28:36;8.15;;;4.28;;
32196;SDS011;18697;42.770;23.400;2023-07-22T00:31:02;8.00;;;3.88;;
32196;SDS011;18697;42.770;23.400;2023-07-22T00:33:28;7.57;;;4.25;;
32196;SDS011;18697;42.770;23.400;2023-07-22T00:35:53;6.45;;;4.15;;
32196;SDS011;18697;42.770;23.400;2023-07-22T00:38:19;9.25;;;4.55;;
32196;SDS011;18697;42.770;23.400;2023-07-22T00:40:45;10.38;;;4.57;;
32196;SDS011;18697;42.770;23.400;2023-07-22T00:43:10;7.85;;;4.70;;
32196;SDS011;18697;42.770;23.400;2023-07-22T00:45:36;11.40;;;4.47;;
32196;SDS011;18697;42.770;23.400;2023-07-22T00:48:02;6.53;;;4.32;;
32196;SDS011;18697;42.770;23.400;2023-07-22T00:50:30;5.93;;;4.18;;
32196;SDS011;18697;42.770;23.400;2023-07-22T00:52:56;10.00;;;5.40;;
32196;SDS011;18697;42.770;23.400;2023-07-22T00:55:22;6.70;;;4.10;;
32196;SDS011;18697;42.770;23.400;2023-07-22T00:57:48;5.55;;;3.78;;
32196;SDS011;18697;42.770;23.400;2023-07-22T01:00:13;7.32;;;4.40;;
32196;SDS011;18697;42.770;23.400;2023-07-22T01:02:41;6.60;;;3.92;;
32196;SDS011;18697;42.770;23.400;2023-07-22T01:05:08;5.75;;;4.30;;
32196;SDS011;18697;42.770;23.400;2023-07-22T01:07:35;10.20;;;4.60;;
32196;SDS011;18697;42.770;23.400;2023-07-22T01:10:01;11.23;;;4.35;;
32196;SDS011;18697;42.770;23.400;2023-07-22T01:12:28;10.00;;;6.03;;
32196;SDS011;18697;42.770;23.400;2023-07-22T01:14:53;6.68;;;5.00;;
32196;SDS011;18697;42.770;23.400;2023-07-22T01:17:19;9.30;;;6.35;;
32196;SDS011;18697;42.770;23.400;2023-07-22T01:19:44;11.80;;;5.72;;
32196;SDS011;18697;42.770;23.400;2023-07-22T01:22:12;11.85;;;6.28;;
32196;SDS011;18697;42.770;23.400;2023-07-22T01:24:38;8.30;;;6.60;;
32196;SDS011;18697;42.770;23.400;2023-07-22T01:27:05;10.02;;;6.50;;
32196;SDS011;18697;42.770;23.400;2023-07-22T01:29:33;8.20;;;5.63;;
32196;SDS011;18697;42.770;23.400;2023-07-22T01:31:59;13.25;;;5.95;;
32196;SDS011;18697;42.770;23.400;2023-07-22T01:34:24;12.27;;;5.43;;
32196;SDS011;18697;42.770;23.400;2023-07-22T01:36:50;6.65;;;5.30;;
32196;SDS011;18697;42.770;23.400;2023-07-22T01:39:16;9.48;;;5.07;;
32196;SDS011;18697;42.770;23.400;2023-07-22T01:41:42;10.55;;;5.15;;
32196;SDS011;18697;42.770;23.400;2023-07-22T01:44:07;7.35;;;4.93;;
32196;SDS011;18697;42.770;23.400;2023-07-22T01:46:33;7.35;;;4.50;;
32196;SDS011;18697;42.770;23.400;2023-07-22T01:48:58;7.43;;;4.65;;
32196;SDS011;18697;42.770;23.400;2023-07-22T01:51:24;10.27;;;4.07;;
32196;SDS011;18697;42.770;23.400;2023-07-22T01:53:50;7.20;;;4.47;;
32196;SDS011;18697;42.770;23.400;2023-07-22T01:56:16;6.40;;;4.22;;
32196;SDS011;18697;42.770;23.400;2023-07-22T01:58:41;7.60;;;4.13;;
32196;SDS011;18697;42.770;23.400;2023-07-22T02:01:07;7.50;;;4.00;;
32196;SDS011;18697;42.770;23.400;2023-07-22T02:03:33;8.40;;;4.18;;
32196;SDS011;18697;42.770;23.400;2023-07-22T02:06:04;5.72;;;4.25;;
32196;SDS011;18697;42.770;23.400;2023-07-22T02:08:30;8.07;;;4.55;;
32196;SDS011;18697;42.770;23.400;2023-07-22T02:10:59;7.07;;;4.35;;
32196;SDS011;18697;42.770;23.400;2023-07-22T02:13:27;8.13;;;4.60;;
32196;SDS011;18697;42.770;23.400;2023-07-22T02:15:53;7.10;;;4.50;;
32196;SDS011;18697;42.770;23.400;2023-07-22T02:18:19;8.20;;;4.13;;
32196;SDS011;18697;42.770;23.400;2023-07-22T02:20:44;9.00;;;4.75;;
32196;SDS011;18697;42.770;23.400;2023-07-22T02:23:09;7.82;;;4.95;;
32196;SDS011;18697;42.770;23.400;2023-07-22T02:25:35;8.13;;;4.28;;
32196;SDS011;18697;42.770;23.400;2023-07-22T02:28:01;6.72;;;4.43;;
32196;SDS011;18697;42.770;23.400;2023-07-22T02:30:26;7.40;;;4.45;;
32196;SDS011;18697;42.770;23.400;2023-07-22T02:32:52;6.07;;;4.78;;
32196;SDS011;18697;42.770;23.400;2023-07-22T02:35:17;6.35;;;4.53;;
32196;SDS011;18697;42.770;23.400;2023-07-22T02:37:42;9.85;;;4.47;;
32196;SDS011;18697;42.770;23.400;2023-07-22T02:40:08;10.23;;;4.47;;
32196;SDS011;18697;42.770;23.400;2023-07-22T02:42:36;6.43;;;4.20;;
32196;SDS011;18697;42.770;23.400;2023-07-22T02:45:01;11.65;;;5.20;;
32196;SDS011;18697;42.770;23.400;2023-07-22T02:47:29;5.22;;;4.32;;
32196;SDS011;18697;42.770;23.400;2023-07-22T02:49:54;7.10;;;4.38;;
32196;SDS011;18697;42.770;23.400;2023-07-22T02:52:20;6.68;;;4.05;;
32196;SDS011;18697;42.770;23.400;2023-07-22T02:55:03;6.78;;;4.38;;
32196;SDS011;18697;42.770;23.400;2023-07-22T02:57:30;6.60;;;3.92;;
32196;SDS011;18697;42.770;23.400;2023-07-22T02:59:56;9.85;;;4.60;;
32196;SDS011;18697;42.770;23.400;2023-07-22T03:02:21;8.57;;;4.75;;
32196;SDS011;18697;42.770;23.400;2023-07-22T03:04:47;6.05;;;3.92;;
32196;SDS011;18697;42.770;23.400;2023-07-22T03:07:12;8.82;;;4.53;;
32196;SDS011;18697;42.770;23.400;2023-07-22T03:09:37;10.13;;;4.18;;
32196;SDS011;18697;42.770;23.400;2023-07-22T03:12:03;14.25;;;4.10;;
32196;SDS011;18697;42.770;23.400;2023-07-22T03:14:28;7.63;;;4.47;;
32196;SDS011;18697;42.770;23.400;2023-07-22T03:16:54;7.55;;;4.90;;
32196;SDS011;18697;42.770;23.400;2023-07-22T03:19:19;6.82;;;3.92;;
32196;SDS011;18697;42.770;23.400;2023-07-22T03:21:44;8.82;;;4.25;;
32196;SDS011;18697;42.770;23.400;2023-07-22T03:24:10;6.75;;;4.10;;
32196;SDS011;18697;42.770;23.400;2023-07-22T03:26:35;5.20;;;4.55;;
32196;SDS011;18697;42.770;23.400;2023-07-22T03:29:01;5.63;;;3.90;;
32196;SDS011;18697;42.770;23.400;2023-07-22T03:31:26;6.63;;;4.57;;
32196;SDS011;18697;42.770;23.400;2023-07-22T03:33:51;6.72;;;4.47;;
32196;SDS011;18697;42.770;23.400;2023-07-22T03:36:17;8.68;;;4.50;;
32196;SDS011;18697;42.770;23.400;2023-07-22T03:38:42;10.25;;;4.43;;
32196;SDS011;18697;42.770;23.400;2023-07-22T03:41:08;5.75;;;4.00;;
32196;SDS011;18697;42.770;23.400;2023-07-22T03:43:33;7.32;;;4.30;;
32196;SDS011;18697;42.770;23.400;2023-07-22T03:45:59;8.57;;;4.63;;
32196;SDS011;18697;42.770;23.400;2023-07-22T03:48:24;8.23;;;4.72;;
32196;SDS011;18697;42.770;23.400;2023-07-22T03:50:49;7.70;;;4.50;;
32196;SDS011;18697;42.770;23.400;2023-07-22T03:53:15;8.25;;;4.70;;
32196;SDS011;18697;42.770;23.400;2023-07-22T03:55:41;6.38;;;4.28;;
32196;SDS011;18697;42.770;23.400;2023-07-22T03:58:06;8.25;;;4.32;;
32196;SDS011;18697;42.770;23.400;2023-07-22T04:00:31;7.55;;;4.57;;
32196;SDS011;18697;42.770;23.400;2023-07-22T04:02:57;11.80;;;5.20;;
32196;SDS011;18697;42.770;23.400;2023-07-22T04:05:22;12.93;;;5.18;;
32196;SDS011;18697;42.770;23.400;2023-07-22T04:07:47;7.80;;;4.97;;
32196;SDS011;18697;42.770;23.400;2023-07-22T04:10:13;13.93;;;5.00;;
32196;SDS011;18697;42.770;23.400;2023-07-22T04:12:38;14.82;;;5.30;;
32196;SDS011;18697;42.770;23.400;2023-07-22T04:15:04;22.40;;;5.40;;
32196;SDS011;18697;42.770;23.400;2023-07-22T04:17:30;7.03;;;4.57;;
32196;SDS011;18697;42.770;23.400;2023-07-22T04:19:56;9.43;;;4.75;;
32196;SDS011;18697;42.770;23.400;2023-07-22T04:22:21;12.13;;;5.05;;
32196;SDS011;18697;42.770;23.400;2023-07-22T04:24:47;9.77;;;4.55;;
32196;SDS011;18697;42.770;23.400;2023-07-22T04:27:16;12.15;;;5.07;;
32196;SDS011;18697;42.770;23.400;2023-07-22T04:29:42;10.73;;;5.15;;
32196;SDS011;18697;42.770;23.400;2023-07-22T04:32:07;10.50;;;4.60;;
32196;SDS011;18697;42.770;23.400;2023-07-22T04:34:33;8.43;;;5.05;;
32196;SDS011;18697;42.770;23.400;2023-07-22T04:36:59;12.45;;;5.43;;
32196;SDS011;18697;42.770;23.400;2023-07-22T04:39:24;10.63;;;5.25;;
32196;SDS011;18697;42.770;23.400;2023-07-22T04:41:50;9.73;;;5.45;;
32196;SDS011;18697;42.770;23.400;2023-07-22T04:44:17;12.80;;;5.53;;
32196;SDS011;18697;42.770;23.400;2023-07-22T04:46:42;8.98;;;6.10;;
32196;SDS011;18697;42.770;23.400;2023-07-22T04:49:08;10.30;;;4.93;;
32196;SDS011;18697;42.770;23.400;2023-07-22T04:51:33;11.00;;;5.07;;
32196;SDS011;18697;42.770;23.400;2023-07-22T04:53:59;10.75;;;5.65;;
32196;SDS011;18697;42.770;23.400;2023-07-22T04:56:24;8.75;;;5.25;;
32196;SDS011;18697;42.770;23.400;2023-07-22T04:58:49;10.00;;;5.28;;
32196;SDS011;18697;42.770;23.400;2023-07-22T05:01:15;11.02;;;5.07;;
32196;SDS011;18697;42.770;23.400;2023-07-22T05:03:41;8.05;;;5.07;;
32196;SDS011;18697;42.770;23.400;2023-07-22T05:06:06;14.45;;;5.68;;
32196;SDS011;18697;42.770;23.400;2023-07-22T05:08:33;10.30;;;5.68;;
32196;SDS011;18697;42.770;23.400;2023-07-22T05:10:59;19.25;;;5.80;;
32196;SDS011;18697;42.770;23.400;2023-07-22T05:13:24;10.55;;;5.28;;
32196;SDS011;18697;42.770;23.400;2023-07-22T05:15:50;7.03;;;5.13;;
32196;SDS011;18697;42.770;23.400;2023-07-22T05:18:15;9.77;;;6.05;;
32196;SDS011;18697;42.770;23.400;2023-07-22T05:20:40;9.60;;;5.50;;
32196;SDS011;18697;42.770;23.400;2023-07-22T05:23:06;8.30;;;5.00;;
32196;SDS011;18697;42.770;23.400;2023-07-22T05:25:31;8.35;;;4.93;;
32196;SDS011;18697;42.770;23.400;2023-07-22T05:27:56;10.18;;;5.10;;
32196;SDS011;18697;42.770;23.400;2023-07-22T05:30:22;9.00;;;4.45;;
32196;SDS011;18697;42.770;23.400;2023-07-22T05:32:47;7.38;;;5.18;;
32196;SDS011;18697;42.770;23.400;2023-07-22T05:35:13;11.38;;;5.20;;
32196;SDS011;18697;42.770;23.400;2023-07-22T05:37:38;11.40;;;5.18;;
32196;SDS011;18697;42.770;23.400;2023-07-22T05:40:04;8.48;;;4.97;;
32196;SDS011;18697;42.770;23.400;2023-07-22T05:42:30;8.02;;;5.80;;
32196;SDS011;18697;42.770;23.400;2023-07-22T05:44:57;6.88;;;5.53;;
32196;SDS011;18697;42.770;23.400;2023-07-22T05:47:23;7.85;;;5.25;;
32196;SDS011;18697;42.770;23.400;2023-07-22T05:49:48;9.65;;;5.80;;
32196;SDS011;18697;42.770;23.400;2023-07-22T05:52:14;10.02;;;5.75;;
32196;SDS011;18697;42.770;23.400;2023-07-22T05:54:39;11.60;;;5.70;;
32196;SDS011;18697;42.770;23.400;2023-07-22T05:57:04;11.38;;;5.25;;
32196;SDS011;18697;42.770;23.400;2023-07-22T05:59:30;8.00;;;5.18;;
32196;SDS011;18697;42.770;23.400;2023-07-22T06:01:56;7.55;;;5.88;;
32196;SDS011;18697;42.770;23.400;2023-07-22T06:04:21;12.35;;;5.20;;
32196;SDS011;18697;42.770;23.400;2023-07-22T06:06:47;8.15;;;4.88;;
32196;SDS011;18697;42.770;23.400;2023-07-22T06:09:12;13.48;;;6.03;;
32196;SDS011;18697;42.770;23.400;2023-07-22T06:11:37;9.80;;;5.07;;
32196;SDS011;18697;42.770;23.400;2023-07-22T06:14:03;12.73;;;5.40;;
32196;SDS011;18697;42.770;23.400;2023-07-22T06:16:28;7.18;;;5.25;;
32196;SDS011;18697;42.770;23.400;2023-07-22T06:18:53;6.95;;;4.72;;
32196;SDS011;18697;42.770;23.400;2023-07-22T06:21:19;11.18;;;5.05;;
32196;SDS011;18697;42.770;23.400;2023-07-22T06:23:44;13.32;;;5.65;;
32196;SDS011;18697;42.770;23.400;2023-07-22T06:26:10;14.48;;;6.13;;
32196;SDS011;18697;42.770;23.400;2023-07-22T06:28:35;16.17;;;5.75;;
32196;SDS011;18697;42.770;23.400;2023-07-22T06:31:00;11.90;;;5.18;;
32196;SDS011;18697;42.770;23.400;2023-07-22T06:33:26;17.33;;;6.38;;
32196;SDS011;18697;42.770;23.400;2023-07-22T06:35:51;10.82;;;5.22;;
32196;SDS011;18697;42.770;23.400;2023-07-22T06:38:16;10.75;;;5.72;;
32196;SDS011;18697;42.770;23.400;2023-07-22T06:40:42;10.80;;;5.75;;
32196;SDS011;18697;42.770;23.400;2023-07-22T06:43:07;11.38;;;6.07;;
32196;SDS011;18697;42.770;23.400;2023-07-22T06:45:33;10.35;;;5.72;;
32196;SDS011;18697;42.770;23.400;2023-07-22T06:47:58;11.32;;;6.05;;
32196;SDS011;18697;42.770;23.400;2023-07-22T06:50:24;12.00;;;6.10;;
32196;SDS011;18697;42.770;23.400;2023-07-22T06:52:49;10.27;;;5.88;;
32196;SDS011;18697;42.770;23.400;2023-07-22T06:55:15;9.27;;;6.13;;
32196;SDS011;18697;42.770;23.400;2023-07-22T06:57:40;8.60;;;5.90;;
32196;SDS011;18697;42.770;23.400;2023-07-22T07:00:06;11.32;;;5.82;;
32196;SDS011;18697;42.770;23.400;2023-07-22T07:02:32;14.32;;;6.60;;
32196;SDS011;18697;42.770;23.400;2023-07-22T07:04:57;14.52;;;6.13;;
32196;SDS011;18697;42.770;23.400;2023-07-22T07:07:22;8.15;;;5.28;;
32196;SDS011;18697;42.770;23.400;2023-07-22T07:09:48;16.75;;;5.75;;
32196;SDS011;18697;42.770;23.400;2023-07-22T07:12:13;11.93;;;6.15;;
32196;SDS011;18697;42.770;23.400;2023-07-22T07:14:38;11.27;;;5.75;;
32196;SDS011;18697;42.770;23.400;2023-07-22T07:17:04;34.50;;;7.10;;
32196;SDS011;18697;42.770;23.400;2023-07-22T07:19:29;13.35;;;6.03;;
32196;SDS011;18697;42.770;23.400;2023-07-22T07:21:55;22.88;;;6.40;;
32196;SDS011;18697;42.770;23.400;2023-07-22T07:24:20;57.92;;;9.10;;
32196;SDS011;18697;42.770;23.400;2023-07-22T07:26:45;9.93;;;5.68;;
32196;SDS011;18697;42.770;23.400;2023-07-22T07:29:11;13.70;;;5.28;;
32196;SDS011;18697;42.770;23.400;2023-07-22T07:31:37;10.75;;;5.82;;
32196;SDS011;18697;42.770;23.400;2023-07-22T07:34:03;10.75;;;5.60;;
32196;SDS011;18697;42.770;23.400;2023-07-22T07:36:28;10.80;;;5.70;;
32196;SDS011;18697;42.770;23.400;2023-07-22T07:38:53;12.95;;;5.47;;
32196;SDS011;18697;42.770;23.400;2023-07-22T07:41:19;9.88;;;5.20;;
32196;SDS011;18697;42.770;23.400;2023-07-22T07:43:46;21.27;;;6.07;;
32196;SDS011;18697;42.770;23.400;2023-07-22T07:46:32;26.27;;;6.50;;
32196;SDS011;18697;42.770;23.400;2023-07-22T07:48:57;10.90;;;6.33;;
32196;SDS011;18697;42.770;23.400;2023-07-22T07:51:26;11.02;;;5.85;;
32196;SDS011;18697;42.770;23.400;2023-07-22T07:53:53;18.83;;;5.93;;
32196;SDS011;18697;42.770;23.400;2023-07-22T07:56:19;11.77;;;5.93;;
32196;SDS011;18697;42.770;23.400;2023-07-22T07:58:47;14.57;;;7.35;;
32196;SDS011;18697;42.770;23.400;2023-07-22T08:01:14;10.07;;;6.10;;
32196;SDS011;18697;42.770;23.400;2023-07-22T08:03:40;11.73;;;5.97;;
32196;SDS011;18697;42.770;23.400;2023-07-22T08:06:07;10.80;;;6.68;;
32196;SDS011;18697;42.770;23.400;2023-07-22T08:08:33;13.13;;;6.18;;
32196;SDS011;18697;42.770;23.400;2023-07-22T08:11:00;17.50;;;6.68;;
32196;SDS011;18697;42.770;23.400;2023-07-22T08:13:26;14.38;;;5.80;;
32196;SDS011;18697;42.770;23.400;2023-07-22T08:15:52;12.38;;;6.45;;
32196;SDS011;18697;42.770;23.400;2023-07-22T08:18:18;13.10;;;6.95;;
32196;SDS011;18697;42.770;23.400;2023-07-22T08:20:44;12.70;;;7.18;;
32196;SDS011;18697;42.770;23.400;2023-07-22T08:23:12;11.95;;;6.63;;
32196;SDS011;18697;42.770;23.400;2023-07-22T08:25:37;12.15;;;6.75;;
32196;SDS011;18697;42.770;23.400;2023-07-22T08:28:02;11.68;;;6.63;;
32196;SDS011;18697;42.770;23.400;2023-07-22T08:30:28;14.63;;;6.97;;
32196;SDS011;18697;42.770;23.400;2023-07-22T08:32:53;15.00;;;7.95;;
32196;SDS011;18697;42.770;23.400;2023-07-22T08:35:19;13.45;;;6.75;;
32196;SDS011;18697;42.770;23.400;2023-07-22T08:37:44;12.32;;;6.70;;
32196;SDS011;18697;42.770;23.400;2023-07-22T08:40:11;12.05;;;6.32;;
32196;SDS011;18697;42.770;23.400;2023-07-22T08:42:37;11.68;;;6.78;;
32196;SDS011;18697;42.770;23.400;2023-07-22T08:45:03;9.23;;;6.97;;
32196;SDS011;18697;42.770;23.400;2023-07-22T08:47:31;18.83;;;7.88;;
32196;SDS011;18697;42.770;23.400;2023-07-22T08:49:58;13.40;;;6.97;;
32196;SDS011;18697;42.770;23.400;2023-07-22T08:52:27;22.00;;;7.55;;
32196;SDS011;18697;42.770;23.400;2023-07-22T08:54:53;16.58;;;8.30;;
32196;SDS011;18697;42.770;23.400;2023-07-22T08:57:20;21.70;;;9.70;;
32196;SDS011;18697;42.770;23.400;2023-07-22T08:59:46;15.48;;;8.18;;
32196;SDS011;18697;42.770;23.400;2023-07-22T09:02:12;16.38;;;7.63;;
32196;SDS011;18697;42.770;23.400;2023-07-22T09:04:41;17.55;;;7.32;;
32196;SDS011;18697;42.770;23.400;2023-07-22T09:07:08;14.18;;;7.25;;
32196;SDS011;18697;42.770;23.400;2023-07-22T09:09:34;16.35;;;7.90;;
32196;SDS011;18697;42.770;23.400;2023-07-22T09:12:01;23.05;;;8.27;;
32196;SDS011;18697;42.770;23.400;2023-07-22T09:14:27;14.20;;;6.50;;
32196;SDS011;18697;42.770;23.400;2023-07-22T09:16:53;11.32;;;6.95;;
32196;SDS011;18697;42.770;23.400;2023-07-22T09:19:18;27.05;;;7.53;;
32196;SDS011;18697;42.770;23.400;2023-07-22T09:21:44;14.27;;;7.13;;
32196;SDS011;18697;42.770;23.400;2023-07-22T09:24:27;21.05;;;8.13;;
32196;SDS011;18697;42.770;23.400;2023-07-22T09:26:55;14.20;;;6.50;;
32196;SDS011;18697;42.770;23.400;2023-07-22T09:29:38;17.45;;;7.00;;
32196;SDS011;18697;42.770;23.400;2023-07-22T09:32:09;13.35;;;7.03;;
32196;SDS011;18697;42.770;23.400;2023-07-22T09:34:35;17.73;;;7.22;;
32196;SDS011;18697;42.770;23.400;2023-07-22T09:37:00;16.38;;;7.68;;
32196;SDS011;18697;42.770;23.400;2023-07-22T09:39:26;20.75;;;8.63;;
32196;SDS011;18697;42.770;23.400;2023-07-22T09:41:51;17.30;;;7.75;;
32196;SDS011;18697;42.770;23.400;2023-07-22T09:44:20;14.98;;;7.78;;
32196;SDS011;18697;42.770;23.400;2023-07-22T09:46:47;13.85;;;6.75;;
32196;SDS011;18697;42.770;23.400;2023-07-22T09:49:14;12.40;;;6.80;;
32196;SDS011;18697;42.770;23.400;2023-07-22T09:51:41;15.07;;;6.95;;
32196;SDS011;18697;42.770;23.400;2023-07-22T09:54:06;12.60;;;7.38;;
32196;SDS011;18697;42.770;23.400;2023-07-22T09:56:33;11.73;;;7.32;;
32196;SDS011;18697;42.770;23.400;2023-07-22T09:59:08;13.02;;;7.70;;
32196;SDS011;18697;42.770;23.400;2023-07-22T10:01:37;21.95;;;8.05;;
32196;SDS011;18697;42.770;23.400;2023-07-22T10:04:03;13.45;;;7.70;;
32196;SDS011;18697;42.770;23.400;2023-07-22T10:06:30;39.03;;;8.82;;
32196;SDS011;18697;42.770;23.400;2023-07-22T10:08:57;15.13;;;7.25;;
32196;SDS011;18697;42.770;23.400;2023-07-22T10:11:33;14.90;;;6.75;;
32196;SDS011;18697;42.770;23.400;2023-07-22T10:13:59;14.80;;;7.65;;
32196;SDS011;18697;42.770;23.400;2023-07-22T10:16:26;11.13;;;6.93;;
32196;SDS011;18697;42.770;23.400;2023-07-22T10:18:53;21.05;;;8.13;;
32196;SDS011;18697;42.770;23.400;2023-07-22T10:21:18;16.73;;;7.30;;
32196;SDS011;18697;42.770;23.400;2023-07-22T10:23:44;15.82;;;7.07;;
32196;SDS011;18697;42.770;23.400;2023-07-22T10:26:13;10.23;;;6.18;;
32196;SDS011;18697;42.770;23.400;2023-07-22T10:28:41;16.80;;;6.95;;
32196;SDS011;18697;42.770;23.400;2023-07-22T10:31:09;18.90;;;7.43;;
32196;SDS011;18697;42.770;23.400;2023-07-22T10:33:35;13.85;;;7.15;;
32196;SDS011;18697;42.770;23.400;2023-07-22T10:36:01;12.07;;;6.18;;
32196;SDS011;18697;42.770;23.400;2023-07-22T10:38:30;16.45;;;6.75;;
32196;SDS011;18697;42.770;23.400;2023-07-22T10:40:56;16.25;;;6.22;;
32196;SDS011;18697;42.770;23.400;2023-07-22T10:43:32;25.08;;;7.43;;
32196;SDS011;18697;42.770;23.400;2023-07-22T10:46:05;15.35;;;5.57;;
32196;SDS011;18697;42.770;23.400;2023-07-22T10:48:35;15.40;;;5.78;;
32196;SDS011;18697;42.770;23.400;2023-07-22T10:51:06;17.30;;;6.50;;
32196;SDS011;18697;42.770;23.400;2023-07-22T10:53:46;14.00;;;6.80;;
32196;SDS011;18697;42.770;23.400;2023-07-22T10:56:13;17.00;;;6.38;;
32196;SDS011;18697;42.770;23.400;2023-07-22T11:11:53;16.35;;;5.78;;
32196;SDS011;18697;42.770;23.400;2023-07-22T11:14:23;24.27;;;5.65;;
32196;SDS011;18697;42.770;23.400;2023-07-22T11:16:50;19.10;;;6.15;;
32196;SDS011;18697;42.770;23.400;2023-07-22T11:19:17;22.02;;;5.65;;
32196;SDS011;18697;42.770;23.400;2023-07-22T11:21:45;22.13;;;5.85;;
32196;SDS011;18697;42.770;23.400;2023-07-22T11:24:11;23.55;;;5.72;;
32196;SDS011;18697;42.770;23.400;2023-07-22T11:26:37;14.57;;;4.15;;
32196;SDS011;18697;42.770;23.400;2023-07-22T11:29:04;20.40;;;4.93;;
32196;SDS011;18697;42.770;23.400;2023-07-22T11:31:34;22.92;;;5.75;;
32196;SDS011;18697;42.770;23.400;2023-07-22T11:34:07;22.83;;;4.80;;
32196;SDS011;18697;42.770;23.400;2023-07-22T11:36:36;24.80;;;4.90;;
32196;SDS011;18697;42.770;23.400;2023-07-22T11:39:08;26.23;;;5.22;;
32196;SDS011;18697;42.770;23.400;2023-07-22T11:41:36;19.05;;;5.63;;
32196;SDS011;18697;42.770;23.400;2023-07-22T11:44:03;18.42;;;4.28;;
32196;SDS011;18697;42.770;23.400;2023-07-22T11:46:34;17.38;;;4.45;;
32196;SDS011;18697;42.770;23.400;2023-07-22T11:49:00;25.48;;;5.15;;
32196;SDS011;18697;42.770;23.400;2023-07-22T11:51:26;30.27;;;5.50;;
32196;SDS011;18697;42.770;23.400;2023-07-22T11:53:53;19.95;;;4.57;;
32196;SDS011;18697;42.770;23.400;2023-07-22T11:56:23;16.80;;;5.35;;
32196;SDS011;18697;42.770;23.400;2023-07-22T11:58:51;20.92;;;5.00;;
32196;SDS011;18697;42.770;23.400;2023-07-22T12:01:20;19.77;;;5.05;;
32196;SDS011;18697;42.770;23.400;2023-07-22T12:03:45;19.55;;;4.82;;
32196;SDS011;18697;42.770;23.400;2023-07-22T12:06:11;17.70;;;4.60;;
32196;SDS011;18697;42.770;23.400;2023-07-22T12:08:47;17.25;;;4.95;;
32196;SDS011;18697;42.770;23.400;2023-07-22T12:11:21;19.48;;;5.65;;
32196;SDS011;18697;42.770;23.400;2023-07-22T12:16:31;18.63;;;5.10;;
32196;SDS011;18697;42.770;23.400;2023-07-22T12:18:59;22.77;;;5.32;;
32196;SDS011;18697;42.770;23.400;2023-07-22T12:21:26;17.48;;;4.45;;
32196;SDS011;18697;42.770;23.400;2023-07-22T12:23:52;20.92;;;4.72;;
32196;SDS011;18697;42.770;23.400;2023-07-22T12:26:18;23.48;;;5.30;;
32196;SDS011;18697;42.770;23.400;2023-07-22T12:28:43;10.13;;;4.00;;
32196;SDS011;18697;42.770;23.400;2023-07-22T12:31:08;21.23;;;4.97;;
32196;SDS011;18697;42.770;23.400;2023-07-22T12:33:34;30.38;;;4.85;;
32196;SDS011;18697;42.770;23.400;2023-07-22T12:36:00;31.30;;;5.18;;
32196;SDS011;18697;42.770;23.400;2023-07-22T12:38:25;17.63;;;4.78;;
32196;SDS011;18697;42.770;23.400;2023-07-22T12:40:51;13.82;;;4.35;;
32196;SDS011;18697;42.770;23.400;2023-07-22T12:43:16;19.17;;;4.65;;
32196;SDS011;18697;42.770;23.400;2023-07-22T12:45:41;20.05;;;4.72;;
32196;SDS011;18697;42.770;23.400;2023-07-22T12:48:08;15.73;;;4.60;;
32196;SDS011;18697;42.770;23.400;2023-07-22T12:50:34;18.83;;;4.35;;
32196;SDS011;18697;42.770;23.400;2023-07-22T12:52:59;28.83;;;5.47;;
32196;SDS011;18697;42.770;23.400;2023-07-22T12:55:25;18.30;;;4.93;;
32196;SDS011;18697;42.770;23.400;2023-07-22T12:57:50;12.68;;;4.35;;
32196;SDS011;18697;42.770;23.400;2023-07-22T13:00:16;21.70;;;5.68;;
32196;SDS011;18697;42.770;23.400;2023-07-22T13:02:41;22.45;;;5.43;;
32196;SDS011;18697;42.770;23.400;2023-07-22T13:05:07;28.38;;;6.13;;
32196;SDS011;18697;42.770;23.400;2023-07-22T13:07:32;13.52;;;3.88;;
32196;SDS011;18697;42.770;23.400;2023-07-22T13:09:58;23.30;;;5.00;;
32196;SDS011;18697;42.770;23.400;2023-07-22T13:12:27;21.63;;;4.47;;
32196;SDS011;18697;42.770;23.400;2023-07-22T13:14:52;22.33;;;4.63;;
32196;SDS011;18697;42.770;23.400;2023-07-22T13:17:17;23.85;;;4.95;;
32196;SDS011;18697;42.770;23.400;2023-07-22T13:19:43;23.55;;;5.43;;
32196;SDS011;18697;42.770;23.400;2023-07-22T13:22:08;21.27;;;5.90;;
32196;SDS011;18697;42.770;23.400;2023-07-22T13:24:34;22.08;;;4.18;;
32196;SDS011;18697;42.770;23.400;2023-07-22T13:27:00;18.90;;;5.68;;
32196;SDS011;18697;42.770;23.400;2023-07-22T13:29:25;18.75;;;4.93;;
32196;SDS011;18697;42.770;23.400;2023-07-22T13:31:50;24.90;;;4.38;;
32196;SDS011;18697;42.770;23.400;2023-07-22T13:34:16;27.88;;;6.35;;
32196;SDS011;18697;42.770;23.400;2023-07-22T13:36:41;16.65;;;4.22;;
32196;SDS011;18697;42.770;23.400;2023-07-22T13:39:07;22.23;;;4.35;;
32196;SDS011;18697;42.770;23.400;2023-07-22T13:41:32;24.02;;;4.53;;
32196;SDS011;18697;42.770;23.400;2023-07-22T13:43:57;16.80;;;4.40;;
32196;SDS011;18697;42.770;23.400;2023-07-22T13:46:23;20.10;;;3.85;;
32196;SDS011;18697;42.770;23.400;2023-07-22T13:48:48;27.38;;;6.13;;
32196;SDS011;18697;42.770;23.400;2023-07-22T13:51:14;30.10;;;4.80;;
32196;SDS011;18697;42.770;23.400;2023-07-22T13:53:39;21.40;;;4.90;;
32196;SDS011;18697;42.770;23.400;2023-07-22T13:56:04;17.33;;;3.95;;
32196;SDS011;18697;42.770;23.400;2023-07-22T13:58:30;29.00;;;5.95;;
32196;SDS011;18697;42.770;23.400;2023-07-22T14:00:55;23.58;;;4.47;;
32196;SDS011;18697;42.770;23.400;2023-07-22T14:03:20;19.70;;;4.43;;
32196;SDS011;18697;42.770;23.400;2023-07-22T14:05:46;33.67;;;5.45;;
32196;SDS011;18697;42.770;23.400;2023-07-22T14:08:12;28.20;;;5.10;;
32196;SDS011;18697;42.770;23.400;2023-07-22T14:10:37;31.42;;;5.90;;
32196;SDS011;18697;42.770;23.400;2023-07-22T14:13:02;20.67;;;4.72;;
32196;SDS011;18697;42.770;23.400;2023-07-22T14:15:28;35.45;;;5.18;;
32196;SDS011;18697;42.770;23.400;2023-07-22T14:17:53;22.38;;;4.88;;
32196;SDS011;18697;42.770;23.400;2023-07-22T14:20:19;28.27;;;4.63;;
32196;SDS011;18697;42.770;23.400;2023-07-22T14:22:44;26.27;;;5.10;;
32196;SDS011;18697;42.770;23.400;2023-07-22T14:25:10;25.60;;;4.32;;
32196;SDS011;18697;42.770;23.400;2023-07-22T14:27:37;30.75;;;5.15;;
32196;SDS011;18697;42.770;23.400;2023-07-22T14:30:04;29.25;;;7.68;;
32196;SDS011;18697;42.770;23.400;2023-07-22T14:32:30;22.48;;;4.63;;
32196;SDS011;18697;42.770;23.400;2023-07-22T14:34:56;29.65;;;6.55;;
32196;SDS011;18697;42.770;23.400;2023-07-22T14:37:21;21.35;;;4.55;;